This is the latest recevied weather packets stored in our database for station/object KD8NVS-13. If no packets are shown the sender has not sent any weather packets the latest 10 day(s).
| Time | Temp. | Humidity | Pressure | Rain* | Wind** | Luminosity | Snow |
|---|---|---|---|---|---|---|---|
| 1777844434 | 16.11° C | 41% | 1004.5 hPa | 0 mm | - | 164 W/m² | - |
| 1777844133 | 16.11° C | 40% | 1004.5 hPa | 0 mm | - | 174 W/m² | - |
| 1777843829 | 16.11° C | 38% | 1004.9 hPa | 0 mm | - | 155 W/m² | - |
| 1777843527 | 16.11° C | 37% | 1004.9 hPa | 0 mm | - | 168 W/m² | - |
| 1777843224 | 16.11° C | 37% | 1004.5 hPa | 0 mm | - | 199 W/m² | - |
| 1777842921 | 16.11° C | 37% | 1004.9 hPa | 0 mm | - | 238 W/m² | - |
| 1777842616 | 16.67° C | 39% | 1004.9 hPa | 0 mm | - | 285 W/m² | - |
| 1777842314 | 16.11° C | 36% | 1004.9 hPa | 0 mm | - | 283 W/m² | - |
| 1777842009 | 16.67° C | 39% | 1004.9 hPa | 0 mm | - | 161 W/m² | - |
| 1777841706 | 16.67° C | 38% | 1004.9 hPa | 0 mm | - | 180 W/m² | - |
| 1777841402 | 16.67° C | 36% | 1005.2 hPa | 0 mm | - | 501 W/m² | - |
| 1777841099 | 16.67° C | 37% | 1005.2 hPa | 0 mm | - | 157 W/m² | - |
| 1777840796 | 16.67° C | 35% | 1005.2 hPa | 0 mm | - | 412 W/m² | - |
| 1777840494 | 16.67° C | 39% | 1005.2 hPa | 0 mm | - | 140 W/m² | - |
| 1777840190 | 16.67° C | 38% | 1004.9 hPa | 0 mm | - | 115 W/m² | - |
| 1777839889 | 16.67° C | 39% | 1004.9 hPa | 0 mm | - | 113 W/m² | - |
| 1777839587 | 16.11° C | 36% | 1004.9 hPa | 0 mm | - | 117 W/m² | - |
| 1777839284 | 16.11° C | 36% | 1005.2 hPa | 0 mm | - | 114 W/m² | - |
| 1777838982 | 16.11° C | 38% | 1005.2 hPa | 0 mm | - | 127 W/m² | - |
| 1777838678 | 16.11° C | 38% | 1005.2 hPa | 0 mm | - | 156 W/m² | - |
| 1777838375 | 16.11° C | 40% | 1005.5 hPa | 0 mm | - | 110 W/m² | - |
| 1777838072 | 16.11° C | 38% | 1005.5 hPa | 0 mm | - | 148 W/m² | - |
| 1777837768 | 16.11° C | 37% | 1005.5 hPa | 0 mm | - | 113 W/m² | - |
| 1777837465 | 16.11° C | 36% | 1005.5 hPa | 0 mm | - | 100 W/m² | - |
| 1777837160 | 16.11° C | 36% | 1005.9 hPa | 0 mm | - | 96 W/m² | - |
* Rain latest hour (hover to see other rain measurements)
** Current wind speed in m/s (hover to see current wind gust speed)